Greenwood Leflore Airport Greenwood US
ICAO: KGWO
IATA: GWO
Category: Medium
Scheduled Services: No

Elevation: 162 ft
TransAlt. 18000 ft.

Airport Communications:
ASOS:119.975
CLNC DEL:125.55
MEMPHIS CNTR:132.5
CTAF:118.35
GND:125.55
RDO:122.2
TWR:118.35
UNICOM:122.95

KGWO Zoom In..

If Map Doesn't Load, Click Here

Runways:

(A) RW 05 length 5011 ft width 150 ft
---- / hdg 53

(B) RW 09 length 2600 ft width 60 ft
---- / hdg 92

(C) RW 18 length 6501 ft width 150 ft
ILS 111.30 / hdg 182

(D) RW 23 length 5011 ft width 150 ft
---- / hdg 233

(E) RW 27 length 2600 ft width 60 ft
---- / hdg 272

(F) RW 36 length 6501 ft width 150 ft
---- / hdg 2

Location; KGWO
Day. 23 / Time. 21.53 Zulu
* Altimeter: 29.91
* Temperature: 26° c. 78.8°f.
* Wind from: 110° Speed 04 kn.
Dewpoint: 22° c.
Visibility: 10 Statute Miles.
Clouds: Clear (automated report).

KGWO 232153Z AUTO 11004KT 10SM CLR 26/22 A2991 RMK AO2 LTG DSNT SW AND W SLP126 T02610222


Wind From 110°
Speed 04 kn.

 
 
jpsmedia.com for Web Design worldairports.se 2018   terms of use